EGOV - Valley
Distance from station: E 5mi, 14km
Updated: 12/17/2017 10:50am
Mostly Cloudy
Mostly Cloudy
 Wind from NNW
Wind: NNW 10 mph , 17 km/h
Temperature: 48°F , 9°C
Wind Chill: 44°F , 7°C
Dew Point: 43°F , 6°C
Humidity: 82%
Barometer: 30.15 inHg , 1021 hPa
Clouds: Mostly Cloudy
Visibility: 6 miles , 10 km
Cloud details: Few Clouds 2700 ft
Mostly Cloudy 15000 ft
2017/12/17 18:50 EGOV 171850Z AUTO 34009KT 9999 FEW027/// BKN150/// 09/06 Q1021